sensor_id;sensor_type;location;lat;lon;timestamp;P1;P4;P2;P0;N10;N4;N25;N1;N05;TS
78521;SPS30;67819;51.972;5.678;2023-08-20T00:02:19;0.6;0.6;0.5;0.5;;;;1.0;106.0;
78521;SPS30;67819;51.972;5.678;2023-08-20T00:04:53;0.0;0.0;0.0;0.0;;;;1.0;104.0;
78521;SPS30;67819;51.972;5.678;2023-08-20T00:07:25;0.0;0.0;0.0;0.0;;;;1.0;102.0;
78521;SPS30;67819;51.972;5.678;2023-08-20T00:09:54;0.0;0.0;0.0;0.0;;;;1.0;101.0;
78521;SPS30;67819;51.972;5.678;2023-08-20T00:12:23;0.0;0.0;0.0;0.0;;;;1.0;101.0;
78521;SPS30;67819;51.972;5.678;2023-08-20T00:14:56;0.0;0.0;0.0;0.0;;;;1.0;100.0;
78521;SPS30;67819;51.972;5.678;2023-08-20T00:17:31;0.0;0.0;0.0;0.0;;;;1.0;96.0;
78521;SPS30;67819;51.972;5.678;2023-08-20T00:20:01;0.0;0.0;0.0;0.0;;;;1.0;94.0;
78521;SPS30;67819;51.972;5.678;2023-08-20T00:22:36;0.0;0.0;0.0;0.0;;;;1.0;90.0;
78521;SPS30;67819;51.972;5.678;2023-08-20T00:25:05;0.0;0.0;0.0;0.0;;;;1.0;88.0;
78521;SPS30;67819;51.972;5.678;2023-08-20T00:27:35;0.0;0.0;0.0;0.0;;;;1.0;87.0;
78521;SPS30;67819;51.972;5.678;2023-08-20T00:30:04;0.0;0.0;0.0;0.0;;;;1.0;85.0;
78521;SPS30;67819;51.972;5.678;2023-08-20T00:32:33;0.0;0.0;0.0;0.0;;;;1.0;82.0;
78521;SPS30;67819;51.972;5.678;2023-08-20T00:35:01;0.0;0.0;0.0;0.0;;;;1.0;79.0;
78521;SPS30;67819;51.972;5.678;2023-08-20T00:37:31;0.0;0.0;0.0;0.0;;;;1.0;79.0;
78521;SPS30;67819;51.972;5.678;2023-08-20T00:39:59;0.0;0.0;0.0;0.0;;;;1.0;79.0;
78521;SPS30;67819;51.972;5.678;2023-08-20T00:42:30;0.0;0.0;0.0;0.0;;;;1.0;78.0;
78521;SPS30;67819;51.972;5.678;2023-08-20T00:45:01;0.5;0.5;0.5;0.5;;;;1.0;78.0;
78521;SPS30;67819;51.972;5.678;2023-08-20T00:47:30;0.1;0.1;0.1;0.1;;;;1.0;78.0;
78521;SPS30;67819;51.972;5.678;2023-08-20T00:49:59;0.0;0.0;0.0;0.0;;;;1.0;77.0;
78521;SPS30;67819;51.972;5.678;2023-08-20T00:52:29;0.0;0.0;0.0;0.0;;;;1.0;76.0;
78521;SPS30;67819;51.972;5.678;2023-08-20T00:54:58;0.0;0.0;0.0;0.0;;;;1.0;74.0;
78521;SPS30;67819;51.972;5.678;2023-08-20T00:57:27;0.1;0.1;0.1;0.1;;;;1.0;71.0;
78521;SPS30;67819;51.972;5.678;2023-08-20T00:59:56;0.0;0.0;0.0;0.0;;;;1.0;68.0;
78521;SPS30;67819;51.972;5.678;2023-08-20T01:02:25;0.0;0.0;0.0;0.0;;;;1.0;66.0;
78521;SPS30;67819;51.972;5.678;2023-08-20T01:04:56;0.0;0.0;0.0;0.0;;;;1.0;65.0;
78521;SPS30;67819;51.972;5.678;2023-08-20T01:07:27;0.0;0.0;0.0;0.0;;;;1.0;65.0;
78521;SPS30;67819;51.972;5.678;2023-08-20T01:10:04;0.0;0.0;0.0;0.0;;;;1.0;66.0;
78521;SPS30;67819;51.972;5.678;2023-08-20T01:12:37;0.0;0.0;0.0;0.0;;;;1.0;68.0;
78521;SPS30;67819;51.972;5.678;2023-08-20T01:15:08;0.0;0.0;0.0;0.0;;;;1.0;71.0;
78521;SPS30;67819;51.972;5.678;2023-08-20T01:17:40;0.0;0.0;0.0;0.0;;;;1.0;75.0;
78521;SPS30;67819;51.972;5.678;2023-08-20T01:20:09;0.0;0.0;0.0;0.0;;;;1.0;81.0;
78521;SPS30;67819;51.972;5.678;2023-08-20T01:22:48;0.0;0.0;0.0;0.0;;;;1.0;84.0;
78521;SPS30;67819;51.972;5.678;2023-08-20T01:25:39;0.0;0.0;0.0;0.0;;;;1.0;85.0;
78521;SPS30;67819;51.972;5.678;2023-08-20T01:30:48;0.0;0.0;0.0;0.0;;;;1.0;83.0;
78521;SPS30;67819;51.972;5.678;2023-08-20T01:33:18;0.0;0.0;0.0;0.0;;;;1.0;103.0;
78521;SPS30;67819;51.972;5.678;2023-08-20T01:35:47;0.6;0.6;0.6;0.6;;;;1.0;102.0;
78521;SPS30;67819;51.972;5.678;2023-08-20T01:38:16;0.0;0.0;0.0;0.0;;;;1.0;102.0;
78521;SPS30;67819;51.972;5.678;2023-08-20T01:40:44;0.0;0.0;0.0;0.0;;;;1.0;102.0;
78521;SPS30;67819;51.972;5.678;2023-08-20T01:43:13;0.2;0.2;0.2;0.2;;;;1.0;102.0;
78521;SPS30;67819;51.972;5.678;2023-08-20T01:45:42;0.0;0.0;0.0;0.0;;;;1.0;101.0;
78521;SPS30;67819;51.972;5.678;2023-08-20T01:48:10;0.0;0.0;0.0;0.0;;;;1.0;101.0;
78521;SPS30;67819;51.972;5.678;2023-08-20T01:50:39;0.0;0.0;0.0;0.0;;;;1.0;101.0;
78521;SPS30;67819;51.972;5.678;2023-08-20T01:53:07;0.0;0.0;0.0;0.0;;;;1.0;101.0;
78521;SPS30;67819;51.972;5.678;2023-08-20T01:55:37;0.3;0.3;0.3;0.3;;;;1.0;101.0;
78521;SPS30;67819;51.972;5.678;2023-08-20T01:58:06;0.0;0.0;0.0;0.0;;;;1.0;101.0;
78521;SPS30;67819;51.972;5.678;2023-08-20T02:00:34;0.0;0.0;0.0;0.0;;;;1.0;101.0;
78521;SPS30;67819;51.972;5.678;2023-08-20T02:03:05;0.0;0.0;0.0;0.0;;;;1.0;101.0;
78521;SPS30;67819;51.972;5.678;2023-08-20T02:05:33;0.0;0.0;0.0;0.0;;;;1.0;101.0;
78521;SPS30;67819;51.972;5.678;2023-08-20T02:08:02;1.1;1.1;1.1;1.1;;;;1.0;101.0;
78521;SPS30;67819;51.972;5.678;2023-08-20T02:10:31;0.0;0.0;0.0;0.0;;;;1.0;100.0;
78521;SPS30;67819;51.972;5.678;2023-08-20T02:12:59;1.1;1.1;1.1;1.1;;;;1.0;100.0;
78521;SPS30;67819;51.972;5.678;2023-08-20T02:15:30;0.0;0.0;0.0;0.0;;;;1.0;100.0;
78521;SPS30;67819;51.972;5.678;2023-08-20T02:17:58;0.0;0.0;0.0;0.0;;;;1.0;100.0;
78521;SPS30;67819;51.972;5.678;2023-08-20T02:20:28;0.0;0.0;0.0;0.0;;;;1.0;99.0;
78521;SPS30;67819;51.972;5.678;2023-08-20T02:22:56;0.0;0.0;0.0;0.0;;;;1.0;98.0;
78521;SPS30;67819;51.972;5.678;2023-08-20T02:25:25;0.1;0.1;0.1;0.1;;;;1.0;97.0;
78521;SPS30;67819;51.972;5.678;2023-08-20T02:27:53;0.1;0.1;0.1;0.1;;;;1.0;97.0;
78521;SPS30;67819;51.972;5.678;2023-08-20T02:30:22;0.1;0.1;0.1;0.1;;;;1.0;96.0;
78521;SPS30;67819;51.972;5.678;2023-08-20T02:32:50;0.0;0.0;0.0;0.0;;;;1.0;96.0;
78521;SPS30;67819;51.972;5.678;2023-08-20T02:35:19;0.0;0.0;0.0;0.0;;;;1.0;95.0;
78521;SPS30;67819;51.972;5.678;2023-08-20T02:40:18;0.2;0.2;0.1;0.0;;;;1.0;86.0;
78521;SPS30;67819;51.972;5.678;2023-08-20T02:42:46;0.0;0.0;0.0;0.0;;;;1.0;104.0;
78521;SPS30;67819;51.972;5.678;2023-08-20T02:45:14;0.0;0.0;0.0;0.0;;;;1.0;102.0;
78521;SPS30;67819;51.972;5.678;2023-08-20T02:47:43;0.0;0.0;0.0;0.0;;;;1.0;102.0;
78521;SPS30;67819;51.972;5.678;2023-08-20T02:50:12;0.0;0.0;0.0;0.0;;;;1.0;102.0;
78521;SPS30;67819;51.972;5.678;2023-08-20T02:52:41;0.0;0.0;0.0;0.0;;;;1.0;101.0;
78521;SPS30;67819;51.972;5.678;2023-08-20T02:55:09;0.0;0.0;0.0;0.0;;;;1.0;101.0;
78521;SPS30;67819;51.972;5.678;2023-08-20T02:57:38;0.0;0.0;0.0;0.0;;;;1.0;101.0;
78521;SPS30;67819;51.972;5.678;2023-08-20T03:00:09;0.3;0.2;0.2;0.2;;;;1.0;101.0;
78521;SPS30;67819;51.972;5.678;2023-08-20T03:02:40;0.2;0.2;0.1;0.1;;;;1.0;101.0;
78521;SPS30;67819;51.972;5.678;2023-08-20T03:05:09;0.0;0.0;0.0;0.0;;;;1.0;100.0;
78521;SPS30;67819;51.972;5.678;2023-08-20T03:07:38;0.0;0.0;0.0;0.0;;;;1.0;100.0;
78521;SPS30;67819;51.972;5.678;2023-08-20T03:10:07;0.0;0.0;0.0;0.0;;;;1.0;101.0;
78521;SPS30;67819;51.972;5.678;2023-08-20T03:12:35;0.0;0.0;0.0;0.0;;;;1.0;101.0;
78521;SPS30;67819;51.972;5.678;2023-08-20T03:15:06;0.0;0.0;0.0;0.0;;;;1.0;101.0;
78521;SPS30;67819;51.972;5.678;2023-08-20T03:17:35;0.0;0.0;0.0;0.0;;;;1.0;101.0;
78521;SPS30;67819;51.972;5.678;2023-08-20T03:20:04;0.0;0.0;0.0;0.0;;;;1.0;101.0;
78521;SPS30;67819;51.972;5.678;2023-08-20T03:22:35;0.0;0.0;0.0;0.0;;;;1.0;101.0;
78521;SPS30;67819;51.972;5.678;2023-08-20T03:25:05;0.0;0.0;0.0;0.0;;;;1.0;101.0;
78521;SPS30;67819;51.972;5.678;2023-08-20T03:27:34;0.0;0.0;0.0;0.0;;;;1.0;101.0;
78521;SPS30;67819;51.972;5.678;2023-08-20T03:30:03;0.7;0.7;0.7;0.7;;;;1.0;102.0;
78521;SPS30;67819;51.972;5.678;2023-08-20T03:32:32;0.0;0.0;0.0;0.0;;;;1.0;104.0;
78521;SPS30;67819;51.972;5.678;2023-08-20T03:35:01;0.0;0.0;0.0;0.0;;;;1.0;107.0;
78521;SPS30;67819;51.972;5.678;2023-08-20T03:37:29;0.0;0.0;0.0;0.0;;;;1.0;111.0;
78521;SPS30;67819;51.972;5.678;2023-08-20T03:39:58;0.0;0.0;0.0;0.0;;;;1.0;114.0;
78521;SPS30;67819;51.972;5.678;2023-08-20T03:42:26;0.0;0.0;0.0;0.0;;;;1.0;116.0;
78521;SPS30;67819;51.972;5.678;2023-08-20T03:44:55;0.0;0.0;0.0;0.0;;;;1.0;118.0;
78521;SPS30;67819;51.972;5.678;2023-08-20T03:47:23;0.6;0.6;0.6;0.6;;;;1.0;121.0;
78521;SPS30;67819;51.972;5.678;2023-08-20T03:49:54;0.0;0.0;0.0;0.0;;;;1.0;123.0;
78521;SPS30;67819;51.972;5.678;2023-08-20T03:57:16;0.0;0.0;0.0;0.0;;;;1.0;101.0;
78521;SPS30;67819;51.972;5.678;2023-08-20T03:59:45;0.0;0.0;0.0;0.0;;;;1.0;106.0;
78521;SPS30;67819;51.972;5.678;2023-08-20T04:02:13;0.0;0.0;0.0;0.0;;;;1.0;104.0;
78521;SPS30;67819;51.972;5.678;2023-08-20T04:04:42;0.1;0.1;0.1;0.1;;;;1.0;103.0;
78521;SPS30;67819;51.972;5.678;2023-08-20T04:07:11;0.0;0.0;0.0;0.0;;;;1.0;102.0;
78521;SPS30;67819;51.972;5.678;2023-08-20T04:09:39;0.0;0.0;0.0;0.0;;;;1.0;102.0;
78521;SPS30;67819;51.972;5.678;2023-08-20T04:12:09;0.0;0.0;0.0;0.0;;;;1.0;102.0;
78521;SPS30;67819;51.972;5.678;2023-08-20T04:14:37;0.0;0.0;0.0;0.0;;;;1.0;101.0;
78521;SPS30;67819;51.972;5.678;2023-08-20T04:17:06;0.0;0.0;0.0;0.0;;;;1.0;101.0;
78521;SPS30;67819;51.972;5.678;2023-08-20T04:19:34;0.0;0.0;0.0;0.0;;;;1.0;101.0;
78521;SPS30;67819;51.972;5.678;2023-08-20T04:22:03;0.0;0.0;0.0;0.0;;;;1.0;101.0;
78521;SPS30;67819;51.972;5.678;2023-08-20T04:24:32;0.0;0.0;0.0;0.0;;;;1.0;93.0;
78521;SPS30;67819;51.972;5.678;2023-08-20T04:27:01;0.5;0.5;0.4;0.2;;;;1.0;104.0;
78521;SPS30;67819;51.972;5.678;2023-08-20T04:29:29;0.0;0.0;0.0;0.0;;;;1.0;106.0;
78521;SPS30;67819;51.972;5.678;2023-08-20T04:31:58;0.0;0.0;0.0;0.0;;;;1.0;105.0;
78521;SPS30;67819;51.972;5.678;2023-08-20T04:36:53;0.0;0.0;0.0;0.0;;;;1.0;99.0;
78521;SPS30;67819;51.972;5.678;2023-08-20T04:39:22;0.0;0.0;0.0;0.0;;;;1.0;105.0;
78521;SPS30;67819;51.972;5.678;2023-08-20T04:41:50;0.0;0.0;0.0;0.0;;;;1.0;104.0;
78521;SPS30;67819;51.972;5.678;2023-08-20T04:44:19;0.0;0.0;0.0;0.0;;;;1.0;103.0;
78521;SPS30;67819;51.972;5.678;2023-08-20T04:46:47;0.0;0.0;0.0;0.0;;;;1.0;103.0;
78521;SPS30;67819;51.972;5.678;2023-08-20T04:49:16;0.0;0.0;0.0;0.0;;;;1.0;102.0;
78521;SPS30;67819;51.972;5.678;2023-08-20T04:51:44;0.1;0.1;0.1;0.1;;;;1.0;101.0;
78521;SPS30;67819;51.972;5.678;2023-08-20T04:54:13;0.0;0.0;0.0;0.0;;;;1.0;101.0;
78521;SPS30;67819;51.972;5.678;2023-08-20T04:56:41;0.0;0.0;0.0;0.0;;;;1.0;101.0;
78521;SPS30;67819;51.972;5.678;2023-08-20T04:59:10;0.0;0.0;0.0;0.0;;;;1.0;101.0;
78521;SPS30;67819;51.972;5.678;2023-08-20T05:01:39;0.0;0.0;0.0;0.0;;;;1.0;101.0;
78521;SPS30;67819;51.972;5.678;2023-08-20T05:04:07;0.0;0.0;0.0;0.0;;;;1.0;101.0;
78521;SPS30;67819;51.972;5.678;2023-08-20T05:06:36;0.0;0.0;0.0;0.0;;;;1.0;101.0;
78521;SPS30;67819;51.972;5.678;2023-08-20T05:09:05;0.0;0.0;0.0;0.0;;;;1.0;101.0;
78521;SPS30;67819;51.972;5.678;2023-08-20T05:11:33;0.0;0.0;0.0;0.0;;;;1.0;101.0;
78521;SPS30;67819;51.972;5.678;2023-08-20T05:14:02;0.0;0.0;0.0;0.0;;;;1.0;101.0;
78521;SPS30;67819;51.972;5.678;2023-08-20T05:16:31;0.0;0.0;0.0;0.0;;;;1.0;101.0;
78521;SPS30;67819;51.972;5.678;2023-08-20T05:18:59;0.0;0.0;0.0;0.0;;;;1.0;101.0;
78521;SPS30;67819;51.972;5.678;2023-08-20T05:21:28;0.0;0.0;0.0;0.0;;;;1.0;101.0;
78521;SPS30;67819;51.972;5.678;2023-08-20T05:23:56;0.0;0.0;0.0;0.0;;;;1.0;102.0;
78521;SPS30;67819;51.972;5.678;2023-08-20T05:26:25;0.0;0.0;0.0;0.0;;;;1.0;109.0;
78521;SPS30;67819;51.972;5.678;2023-08-20T05:28:55;0.0;0.0;0.0;0.0;;;;1.0;125.0;
78521;SPS30;67819;51.972;5.678;2023-08-20T05:31:24;0.1;0.1;0.1;0.1;;;;1.0;146.0;
78521;SPS30;67819;51.972;5.678;2023-08-20T05:33:54;0.0;0.0;0.0;0.0;;;;1.0;165.0;
78521;SPS30;67819;51.972;5.678;2023-08-20T05:36:23;1.9;1.8;1.7;1.5;;;;1.0;181.0;
78521;SPS30;67819;51.972;5.678;2023-08-20T05:38:53;0.0;0.0;0.0;0.0;;;;1.0;192.0;
78521;SPS30;67819;51.972;5.678;2023-08-20T05:41:22;0.0;0.0;0.0;0.0;;;;1.0;201.0;
78521;SPS30;67819;51.972;5.678;2023-08-20T05:43:50;0.9;0.8;0.8;0.7;;;;1.0;208.0;
78521;SPS30;67819;51.972;5.678;2023-08-20T05:46:19;0.5;0.5;0.5;0.4;;;;1.0;215.0;
78521;SPS30;67819;51.972;5.678;2023-08-20T05:48:47;0.0;0.0;0.0;0.0;;;;1.0;221.0;
78521;SPS30;67819;51.972;5.678;2023-08-20T05:51:16;0.0;0.0;0.0;0.0;;;;1.0;220.0;
78521;SPS30;67819;51.972;5.678;2023-08-20T05:53:44;4.0;3.9;3.7;3.3;;;;1.0;220.0;
78521;SPS30;67819;51.972;5.678;2023-08-20T05:56:15;0.0;0.0;0.0;0.0;;;;1.0;218.0;
78521;SPS30;67819;51.972;5.678;2023-08-20T05:58:45;0.0;0.0;0.0;0.0;;;;1.0;216.0;
78521;SPS30;67819;51.972;5.678;2023-08-20T06:01:13;0.0;0.0;0.0;0.0;;;;1.0;215.0;
78521;SPS30;67819;51.972;5.678;2023-08-20T06:06:07;7.8;7.8;7.8;7.4;;;;1.0;88.0;
78521;SPS30;67819;51.972;5.678;2023-08-20T06:08:35;0.0;0.0;0.0;0.0;;;;1.0;105.0;
78521;SPS30;67819;51.972;5.678;2023-08-20T06:11:04;0.0;0.0;0.0;0.0;;;;1.0;104.0;
78521;SPS30;67819;51.972;5.678;2023-08-20T06:13:32;0.0;0.0;0.0;0.0;;;;1.0;102.0;
78521;SPS30;67819;51.972;5.678;2023-08-20T06:16:01;0.0;0.0;0.0;0.0;;;;1.0;103.0;
78521;SPS30;67819;51.972;5.678;2023-08-20T06:18:29;0.0;0.0;0.0;0.0;;;;1.0;102.0;
78521;SPS30;67819;51.972;5.678;2023-08-20T06:20:58;0.0;0.0;0.0;0.0;;;;1.0;102.0;
78521;SPS30;67819;51.972;5.678;2023-08-20T06:23:26;0.0;0.0;0.0;0.0;;;;1.0;101.0;
78521;SPS30;67819;51.972;5.678;2023-08-20T06:25:55;0.0;0.0;0.0;0.0;;;;1.0;101.0;
78521;SPS30;67819;51.972;5.678;2023-08-20T06:28:23;2.6;2.6;2.6;2.5;;;;1.0;101.0;
78521;SPS30;67819;51.972;5.678;2023-08-20T06:30:52;0.0;0.0;0.0;0.0;;;;1.0;101.0;
78521;SPS30;67819;51.972;5.678;2023-08-20T06:35:49;1.4;1.4;1.4;1.3;;;;1.0;94.0;
78521;SPS30;67819;51.972;5.678;2023-08-20T06:38:17;0.0;0.0;0.0;0.0;;;;1.0;105.0;
78521;SPS30;67819;51.972;5.678;2023-08-20T06:40:46;0.1;0.1;0.1;0.1;;;;1.0;104.0;
78521;SPS30;67819;51.972;5.678;2023-08-20T06:43:14;0.0;0.0;0.0;0.0;;;;1.0;103.0;
78521;SPS30;67819;51.972;5.678;2023-08-20T06:45:43;0.0;0.0;0.0;0.0;;;;1.0;103.0;
78521;SPS30;67819;51.972;5.678;2023-08-20T06:48:11;0.0;0.0;0.0;0.0;;;;1.0;102.0;
78521;SPS30;67819;51.972;5.678;2023-08-20T06:50:41;0.0;0.0;0.0;0.0;;;;1.0;102.0;
78521;SPS30;67819;51.972;5.678;2023-08-20T06:53:09;0.0;0.0;0.0;0.0;;;;1.0;102.0;
78521;SPS30;67819;51.972;5.678;2023-08-20T06:55:38;0.2;0.2;0.2;0.2;;;;1.0;102.0;
78521;SPS30;67819;51.972;5.678;2023-08-20T06:58:08;0.0;0.0;0.0;0.0;;;;1.0;101.0;
78521;SPS30;67819;51.972;5.678;2023-08-20T07:00:37;0.0;0.0;0.0;0.0;;;;1.0;101.0;
78521;SPS30;67819;51.972;5.678;2023-08-20T07:03:06;0.0;0.0;0.0;0.0;;;;1.0;95.0;
78521;SPS30;67819;51.972;5.678;2023-08-20T07:05:37;0.0;0.0;0.0;0.0;;;;1.0;105.0;
78521;SPS30;67819;51.972;5.678;2023-08-20T07:08:06;0.0;0.0;0.0;0.0;;;;1.0;104.0;
78521;SPS30;67819;51.972;5.678;2023-08-20T07:10:35;0.3;0.3;0.3;0.3;;;;1.0;104.0;
78521;SPS30;67819;51.972;5.678;2023-08-20T07:13:03;0.0;0.0;0.0;0.0;;;;1.0;102.0;
78521;SPS30;67819;51.972;5.678;2023-08-20T07:15:39;0.0;0.0;0.0;0.0;;;;1.0;98.0;
78521;SPS30;67819;51.972;5.678;2023-08-20T07:18:07;0.0;0.0;0.0;0.0;;;;1.0;105.0;
78521;SPS30;67819;51.972;5.678;2023-08-20T07:20:35;0.0;0.0;0.0;0.0;;;;1.0;103.0;
78521;SPS30;67819;51.972;5.678;2023-08-20T07:23:05;0.0;0.0;0.0;0.0;;;;1.0;107.0;
78521;SPS30;67819;51.972;5.678;2023-08-20T07:25:35;0.0;0.0;0.0;0.0;;;;1.0;105.0;
78521;SPS30;67819;51.972;5.678;2023-08-20T07:30:31;0.0;0.0;0.0;0.0;;;;1.0;102.0;
78521;SPS30;67819;51.972;5.678;2023-08-20T07:35:30;0.2;0.1;0.1;0.0;;;;1.0;104.0;
78521;SPS30;67819;51.972;5.678;2023-08-20T07:38:01;0.0;0.0;0.0;0.0;;;;1.0;107.0;
78521;SPS30;67819;51.972;5.678;2023-08-20T07:40:30;0.0;0.0;0.0;0.0;;;;1.0;106.0;
78521;SPS30;67819;51.972;5.678;2023-08-20T07:42:58;0.0;0.0;0.0;0.0;;;;1.0;104.0;
78521;SPS30;67819;51.972;5.678;2023-08-20T07:45:27;0.0;0.0;0.0;0.0;;;;1.0;103.0;
78521;SPS30;67819;51.972;5.678;2023-08-20T07:47:55;0.0;0.0;0.0;0.0;;;;1.0;102.0;
78521;SPS30;67819;51.972;5.678;2023-08-20T07:50:24;0.0;0.0;0.0;0.0;;;;1.0;102.0;
78521;SPS30;67819;51.972;5.678;2023-08-20T07:52:51;0.0;0.0;0.0;0.0;;;;1.0;98.0;
78521;SPS30;67819;51.972;5.678;2023-08-20T07:55:20;0.0;0.0;0.0;0.0;;;;1.0;106.0;
78521;SPS30;67819;51.972;5.678;2023-08-20T07:57:50;0.0;0.0;0.0;0.0;;;;1.0;105.0;
78521;SPS30;67819;51.972;5.678;2023-08-20T08:00:19;0.3;0.3;0.3;0.3;;;;1.0;104.0;
78521;SPS30;67819;51.972;5.678;2023-08-20T08:02:48;0.0;0.0;0.0;0.0;;;;1.0;103.0;
78521;SPS30;67819;51.972;5.678;2023-08-20T08:05:16;0.7;0.7;0.7;0.7;;;;1.0;102.0;
78521;SPS30;67819;51.972;5.678;2023-08-20T08:07:45;0.0;0.0;0.0;0.0;;;;1.0;102.0;
78521;SPS30;67819;51.972;5.678;2023-08-20T08:10:13;0.1;0.1;0.1;0.1;;;;1.0;102.0;
78521;SPS30;67819;51.972;5.678;2023-08-20T08:12:44;0.0;0.0;0.0;0.0;;;;1.0;102.0;
78521;SPS30;67819;51.972;5.678;2023-08-20T08:15:14;0.0;0.0;0.0;0.0;;;;1.0;103.0;
78521;SPS30;67819;51.972;5.678;2023-08-20T08:17:45;0.0;0.0;0.0;0.0;;;;1.0;102.0;
78521;SPS30;67819;51.972;5.678;2023-08-20T08:20:14;0.0;0.0;0.0;0.0;;;;1.0;102.0;
78521;SPS30;67819;51.972;5.678;2023-08-20T08:22:42;0.0;0.0;0.0;0.0;;;;1.0;102.0;
78521;SPS30;67819;51.972;5.678;2023-08-20T08:25:11;0.0;0.0;0.0;0.0;;;;1.0;101.0;
78521;SPS30;67819;51.972;5.678;2023-08-20T08:27:40;0.0;0.0;0.0;0.0;;;;1.0;93.0;
78521;SPS30;67819;51.972;5.678;2023-08-20T08:30:09;0.0;0.0;0.0;0.0;;;;1.0;105.0;
78521;SPS30;67819;51.972;5.678;2023-08-20T08:32:38;0.0;0.0;0.0;0.0;;;;1.0;103.0;
78521;SPS30;67819;51.972;5.678;2023-08-20T08:35:06;0.0;0.0;0.0;0.0;;;;1.0;103.0;
78521;SPS30;67819;51.972;5.678;2023-08-20T08:37:35;0.4;0.4;0.4;0.3;;;;1.0;102.0;
78521;SPS30;67819;51.972;5.678;2023-08-20T08:40:06;0.0;0.0;0.0;0.0;;;;1.0;102.0;
78521;SPS30;67819;51.972;5.678;2023-08-20T08:42:36;0.0;0.0;0.0;0.0;;;;1.0;101.0;
78521;SPS30;67819;51.972;5.678;2023-08-20T08:45:08;0.0;0.0;0.0;0.0;;;;1.0;102.0;
78521;SPS30;67819;51.972;5.678;2023-08-20T08:47:40;0.0;0.0;0.0;0.0;;;;1.0;102.0;
78521;SPS30;67819;51.972;5.678;2023-08-20T08:50:10;0.0;0.0;0.0;0.0;;;;1.0;101.0;
78521;SPS30;67819;51.972;5.678;2023-08-20T08:52:41;0.0;0.0;0.0;0.0;;;;1.0;101.0;
78521;SPS30;67819;51.972;5.678;2023-08-20T08:55:12;0.0;0.0;0.0;0.0;;;;1.0;101.0;
78521;SPS30;67819;51.972;5.678;2023-08-20T08:57:41;0.0;0.0;0.0;0.0;;;;1.0;101.0;
78521;SPS30;67819;51.972;5.678;2023-08-20T09:00:10;0.3;0.3;0.2;0.2;;;;1.0;101.0;
78521;SPS30;67819;51.972;5.678;2023-08-20T09:02:42;0.2;0.2;0.2;0.1;;;;1.0;101.0;
78521;SPS30;67819;51.972;5.678;2023-08-20T09:05:11;0.2;0.2;0.2;0.1;;;;1.0;101.0;
78521;SPS30;67819;51.972;5.678;2023-08-20T09:07:42;0.0;0.0;0.0;0.0;;;;1.0;101.0;
78521;SPS30;67819;51.972;5.678;2023-08-20T09:10:12;0.2;0.1;0.1;0.1;;;;1.0;101.0;
78521;SPS30;67819;51.972;5.678;2023-08-20T09:12:44;0.0;0.0;0.0;0.0;;;;1.0;101.0;
78521;SPS30;67819;51.972;5.678;2023-08-20T09:15:15;0.0;0.0;0.0;0.0;;;;1.0;101.0;
78521;SPS30;67819;51.972;5.678;2023-08-20T09:17:44;0.1;0.1;0.1;0.1;;;;1.0;103.0;
78521;SPS30;67819;51.972;5.678;2023-08-20T09:20:14;0.0;0.0;0.0;0.0;;;;1.0;105.0;
78521;SPS30;67819;51.972;5.678;2023-08-20T09:22:45;0.0;0.0;0.0;0.0;;;;1.0;105.0;
78521;SPS30;67819;51.972;5.678;2023-08-20T09:25:18;0.0;0.0;0.0;0.0;;;;1.0;115.0;
78521;SPS30;67819;51.972;5.678;2023-08-20T09:27:47;0.0;0.0;0.0;0.0;;;;1.0;122.0;
78521;SPS30;67819;51.972;5.678;2023-08-20T09:30:19;0.0;0.0;0.0;0.0;;;;1.0;123.0;
78521;SPS30;67819;51.972;5.678;2023-08-20T09:32:49;0.0;0.0;0.0;0.0;;;;1.0;129.0;
78521;SPS30;67819;51.972;5.678;2023-08-20T09:35:35;0.1;0.1;0.0;0.0;;;;1.0;132.0;
78521;SPS30;67819;51.972;5.678;2023-08-20T09:45:25;0.0;0.0;0.0;0.0;;;;1.0;105.0;
78521;SPS30;67819;51.972;5.678;2023-08-20T09:47:57;0.0;0.0;0.0;0.0;;;;1.0;107.0;
78521;SPS30;67819;51.972;5.678;2023-08-20T09:50:27;0.0;0.0;0.0;0.0;;;;1.0;104.0;
78521;SPS30;67819;51.972;5.678;2023-08-20T09:53:03;1.3;1.1;0.9;0.6;;;;1.0;103.0;
78521;SPS30;67819;51.972;5.678;2023-08-20T09:55:39;0.0;0.0;0.0;0.0;;;;1.0;103.0;
78521;SPS30;67819;51.972;5.678;2023-08-20T09:58:11;0.0;0.0;0.0;0.0;;;;1.0;103.0;
78521;SPS30;67819;51.972;5.678;2023-08-20T10:00:41;1.4;1.4;1.4;1.3;;;;1.0;101.0;
78521;SPS30;67819;51.972;5.678;2023-08-20T10:03:10;0.0;0.0;0.0;0.0;;;;1.0;101.0;
78521;SPS30;67819;51.972;5.678;2023-08-20T10:05:39;0.0;0.0;0.0;0.0;;;;1.0;101.0;
78521;SPS30;67819;51.972;5.678;2023-08-20T10:08:08;0.0;0.0;0.0;0.0;;;;1.0;101.0;
78521;SPS30;67819;51.972;5.678;2023-08-20T10:10:39;0.0;0.0;0.0;0.0;;;;1.0;101.0;
78521;SPS30;67819;51.972;5.678;2023-08-20T10:13:07;3.7;3.7;3.7;3.6;;;;1.0;101.0;
78521;SPS30;67819;51.972;5.678;2023-08-20T10:15:36;0.3;0.3;0.3;0.3;;;;1.0;100.0;
78521;SPS30;67819;51.972;5.678;2023-08-20T10:18:08;0.0;0.0;0.0;0.0;;;;1.0;101.0;
78521;SPS30;67819;51.972;5.678;2023-08-20T10:20:36;0.2;0.2;0.2;0.2;;;;1.0;101.0;
78521;SPS30;67819;51.972;5.678;2023-08-20T10:23:06;2.0;1.9;1.7;1.4;;;;1.0;92.0;
78521;SPS30;67819;51.972;5.678;2023-08-20T10:25:40;0.0;0.0;0.0;0.0;;;;1.0;104.0;
78521;SPS30;67819;51.972;5.678;2023-08-20T10:30:39;8.6;7.3;4.6;1.2;;;;1.0;101.0;
78521;SPS30;67819;51.972;5.678;2023-08-20T10:33:35;0.0;0.0;0.0;0.0;;;;1.0;106.0;
78521;SPS30;67819;51.972;5.678;2023-08-20T10:36:08;0.0;0.0;0.0;0.0;;;;1.0;103.0;
78521;SPS30;67819;51.972;5.678;2023-08-20T10:38:38;0.0;0.0;0.0;0.0;;;;1.0;104.0;
78521;SPS30;67819;51.972;5.678;2023-08-20T10:41:07;0.0;0.0;0.0;0.0;;;;1.0;103.0;
78521;SPS30;67819;51.972;5.678;2023-08-20T10:43:38;0.0;0.0;0.0;0.0;;;;1.0;102.0;
78521;SPS30;67819;51.972;5.678;2023-08-20T10:46:13;0.7;0.7;0.5;0.3;;;;1.0;100.0;
78521;SPS30;67819;51.972;5.678;2023-08-20T10:48:45;0.0;0.0;0.0;0.0;;;;1.0;101.0;
78521;SPS30;67819;51.972;5.678;2023-08-20T10:51:16;0.0;0.0;0.0;0.0;;;;1.0;102.0;
78521;SPS30;67819;51.972;5.678;2023-08-20T10:54:02;0.0;0.0;0.0;0.0;;;;1.0;100.0;
78521;SPS30;67819;51.972;5.678;2023-08-20T10:56:42;0.0;0.0;0.0;0.0;;;;1.0;95.0;
78521;SPS30;67819;51.972;5.678;2023-08-20T10:59:13;0.0;0.0;0.0;0.0;;;;1.0;105.0;
78521;SPS30;67819;51.972;5.678;2023-08-20T11:01:44;0.0;0.0;0.0;0.0;;;;1.0;103.0;
78521;SPS30;67819;51.972;5.678;2023-08-20T11:04:14;0.0;0.0;0.0;0.0;;;;1.0;102.0;
78521;SPS30;67819;51.972;5.678;2023-08-20T11:06:45;0.0;0.0;0.0;0.0;;;;1.0;103.0;
78521;SPS30;67819;51.972;5.678;2023-08-20T11:09:14;0.0;0.0;0.0;0.0;;;;1.0;101.0;
78521;SPS30;67819;51.972;5.678;2023-08-20T11:11:43;0.0;0.0;0.0;0.0;;;;1.0;103.0;
78521;SPS30;67819;51.972;5.678;2023-08-20T11:14:13;0.0;0.0;0.0;0.0;;;;1.0;102.0;
78521;SPS30;67819;51.972;5.678;2023-08-20T11:16:43;0.2;0.2;0.2;0.2;;;;1.0;100.0;
78521;SPS30;67819;51.972;5.678;2023-08-20T11:19:12;0.0;0.0;0.0;0.0;;;;1.0;102.0;
78521;SPS30;67819;51.972;5.678;2023-08-20T11:21:41;0.1;0.1;0.1;0.1;;;;1.0;102.0;
78521;SPS30;67819;51.972;5.678;2023-08-20T11:24:12;0.0;0.0;0.0;0.0;;;;1.0;102.0;
78521;SPS30;67819;51.972;5.678;2023-08-20T11:26:42;0.5;0.5;0.5;0.4;;;;1.0;103.0;
78521;SPS30;67819;51.972;5.678;2023-08-20T11:29:12;0.0;0.0;0.0;0.0;;;;1.0;102.0;
78521;SPS30;67819;51.972;5.678;2023-08-20T11:31:45;0.0;0.0;0.0;0.0;;;;1.0;101.0;
78521;SPS30;67819;51.972;5.678;2023-08-20T11:34:14;0.7;0.7;0.7;0.7;;;;1.0;101.0;
78521;SPS30;67819;51.972;5.678;2023-08-20T11:36:43;0.0;0.0;0.0;0.0;;;;1.0;101.0;
78521;SPS30;67819;51.972;5.678;2023-08-20T11:39:12;0.0;0.0;0.0;0.0;;;;1.0;101.0;
78521;SPS30;67819;51.972;5.678;2023-08-20T11:41:43;0.0;0.0;0.0;0.0;;;;1.0;101.0;
78521;SPS30;67819;51.972;5.678;2023-08-20T11:44:18;0.0;0.0;0.0;0.0;;;;1.0;101.0;
78521;SPS30;67819;51.972;5.678;2023-08-20T11:46:55;0.5;0.5;0.5;0.5;;;;1.0;101.0;
78521;SPS30;67819;51.972;5.678;2023-08-20T11:49:28;0.0;0.0;0.0;0.0;;;;1.0;101.0;
78521;SPS30;67819;51.972;5.678;2023-08-20T11:51:57;0.0;0.0;0.0;0.0;;;;1.0;101.0;
78521;SPS30;67819;51.972;5.678;2023-08-20T11:54:26;0.0;0.0;0.0;0.0;;;;1.0;118.0;
78521;SPS30;67819;51.972;5.678;2023-08-20T11:57:01;0.0;0.0;0.0;0.0;;;;1.0;123.0;
78521;SPS30;67819;51.972;5.678;2023-08-20T11:59:28;0.0;0.0;0.0;0.0;;;;1.0;90.0;
78521;SPS30;67819;51.972;5.678;2023-08-20T12:01:56;0.0;0.0;0.0;0.0;;;;1.0;106.0;
78521;SPS30;67819;51.972;5.678;2023-08-20T12:04:27;0.0;0.0;0.0;0.0;;;;1.0;104.0;
78521;SPS30;67819;51.972;5.678;2023-08-20T12:07:03;0.0;0.0;0.0;0.0;;;;1.0;103.0;
78521;SPS30;67819;51.972;5.678;2023-08-20T12:09:33;0.0;0.0;0.0;0.0;;;;1.0;103.0;
78521;SPS30;67819;51.972;5.678;2023-08-20T12:12:02;0.0;0.0;0.0;0.0;;;;1.0;103.0;
78521;SPS30;67819;51.972;5.678;2023-08-20T12:14:33;0.0;0.0;0.0;0.0;;;;1.0;103.0;
78521;SPS30;67819;51.972;5.678;2023-08-20T12:17:02;0.0;0.0;0.0;0.0;;;;1.0;102.0;
78521;SPS30;67819;51.972;5.678;2023-08-20T12:19:33;0.0;0.0;0.0;0.0;;;;1.0;103.0;
78521;SPS30;67819;51.972;5.678;2023-08-20T12:22:02;0.1;0.1;0.1;0.1;;;;1.0;101.0;
78521;SPS30;67819;51.972;5.678;2023-08-20T12:27:02;0.0;0.0;0.0;0.0;;;;1.0;94.0;
78521;SPS30;67819;51.972;5.678;2023-08-20T12:29:31;0.0;0.0;0.0;0.0;;;;1.0;104.0;
78521;SPS30;67819;51.972;5.678;2023-08-20T12:31:59;0.0;0.0;0.0;0.0;;;;1.0;105.0;
78521;SPS30;67819;51.972;5.678;2023-08-20T12:34:30;0.0;0.0;0.0;0.0;;;;1.0;101.0;
78521;SPS30;67819;51.972;5.678;2023-08-20T12:37:01;0.1;0.1;0.1;0.1;;;;1.0;96.0;
78521;SPS30;67819;51.972;5.678;2023-08-20T12:39:29;0.0;0.0;0.0;0.0;;;;1.0;105.0;
78521;SPS30;67819;51.972;5.678;2023-08-20T12:41:58;0.0;0.0;0.0;0.0;;;;1.0;103.0;
78521;SPS30;67819;51.972;5.678;2023-08-20T12:44:26;0.0;0.0;0.0;0.0;;;;1.0;104.0;
78521;SPS30;67819;51.972;5.678;2023-08-20T12:46:55;1.8;1.7;1.6;1.5;;;;1.0;103.0;
78521;SPS30;67819;51.972;5.678;2023-08-20T12:49:23;0.0;0.0;0.0;0.0;;;;1.0;103.0;
78521;SPS30;67819;51.972;5.678;2023-08-20T12:51:52;0.0;0.0;0.0;0.0;;;;1.0;106.0;